createdAt,value
2023-03-15T00:01:19.838Z,59.51
2023-03-15T00:03:47.876Z,59.29
2023-03-15T00:06:15.805Z,57.72
2023-03-15T00:08:47.391Z,58.55
2023-03-15T00:11:18.837Z,58.67
2023-03-15T00:13:47.359Z,58.07
2023-03-15T00:16:18.659Z,57.87
2023-03-15T00:18:47.202Z,58.98
2023-03-15T00:21:15.416Z,58.56
2023-03-15T00:23:42.822Z,58.83
2023-03-15T00:26:10.461Z,58.41
2023-03-15T00:28:38.251Z,58.66
2023-03-15T00:31:14.788Z,57.99
2023-03-15T00:33:42.710Z,57.83
2023-03-15T00:36:10.806Z,57.42
2023-03-15T00:38:39.520Z,58.38
2023-03-15T00:41:08.801Z,57.82
2023-03-15T00:43:36.375Z,58.43
2023-03-15T00:46:04.637Z,58.58
2023-03-15T00:48:32.897Z,58.00
2023-03-15T00:51:04.337Z,57.96
2023-03-15T00:53:32.482Z,58.26
2023-03-15T00:56:04.621Z,57.42
2023-03-15T00:58:32.317Z,58.70
2023-03-15T01:01:00.757Z,57.88
2023-03-15T01:03:28.693Z,57.20
2023-03-15T01:05:56.506Z,57.35
2023-03-15T01:08:24.160Z,56.08
2023-03-15T01:10:51.528Z,56.73
2023-03-15T01:13:19.192Z,57.34
2023-03-15T01:15:47.829Z,56.29
2023-03-15T01:18:15.311Z,55.95
2023-03-15T01:20:44.856Z,55.16
2023-03-15T01:23:12.521Z,54.51
2023-03-15T01:25:40.565Z,54.75
2023-03-15T01:28:08.255Z,54.48
2023-03-15T01:30:35.951Z,54.64
2023-03-15T01:33:03.875Z,55.16
2023-03-15T01:35:31.583Z,55.17
2023-03-15T01:37:59.223Z,53.62
2023-03-15T01:40:27.229Z,54.07
2023-03-15T01:43:04.265Z,53.82
2023-03-15T01:45:59.688Z,53.61
2023-03-15T01:48:33.884Z,53.31
2023-03-15T01:51:04.895Z,52.86
2023-03-15T01:53:33.069Z,53.16
2023-03-15T01:56:01.260Z,52.88
2023-03-15T01:58:29.712Z,51.92
2023-03-15T02:00:57.670Z,52.70
2023-03-15T02:03:36.753Z,52.57
2023-03-15T02:06:07.514Z,52.73
2023-03-15T02:08:41.344Z,52.21
2023-03-15T02:11:08.877Z,53.74
2023-03-15T02:13:36.640Z,53.72
2023-03-15T02:16:06.984Z,53.27
2023-03-15T02:18:37.616Z,52.80
2023-03-15T02:21:15.745Z,53.51
2023-03-15T02:23:44.338Z,54.45
2023-03-15T02:26:26.178Z,53.56
2023-03-15T02:28:54.400Z,53.96
2023-03-15T02:31:22.039Z,53.96
2023-03-15T02:33:51.608Z,55.24
2023-03-15T02:36:24.488Z,54.67
2023-03-15T02:38:52.514Z,55.06
2023-03-15T02:41:28.589Z,55.21
2023-03-15T02:44:00.332Z,55.20
2023-03-15T02:46:28.457Z,54.76
2023-03-15T02:48:55.962Z,55.04
2023-03-15T02:51:24.726Z,55.94
2023-03-15T02:53:52.354Z,56.10
2023-03-15T02:56:20.121Z,56.83
2023-03-15T02:58:47.801Z,56.66
2023-03-15T03:01:16.926Z,55.87
2023-03-15T03:03:46.539Z,56.43
2023-03-15T03:06:15.923Z,57.46
2023-03-15T03:08:47.191Z,57.31
2023-03-15T03:11:15.784Z,58.27
2023-03-15T03:13:43.758Z,58.47
2023-03-15T03:16:11.948Z,58.04
2023-03-15T03:18:42.165Z,58.08
2023-03-15T03:21:09.647Z,58.25
2023-03-15T03:23:37.358Z,58.58
2023-03-15T03:26:16.567Z,58.16
2023-03-15T03:28:46.364Z,57.86
2023-03-15T03:31:25.994Z,57.45
2023-03-15T03:33:55.854Z,57.40
2023-03-15T03:36:25.604Z,56.45
2023-03-15T03:38:53.738Z,56.77
2023-03-15T03:41:21.538Z,56.19
2023-03-15T03:43:49.120Z,56.43
2023-03-15T03:46:16.856Z,56.13
2023-03-15T03:48:45.884Z,56.07
2023-03-15T03:51:13.324Z,55.23
2023-03-15T03:53:40.785Z,55.11
2023-03-15T03:56:08.737Z,54.07
2023-03-15T03:58:36.351Z,53.83
2023-03-15T04:01:05.168Z,53.63
2023-03-15T04:03:33.241Z,53.98
2023-03-15T04:06:02.313Z,54.69
2023-03-15T04:08:29.771Z,54.34
2023-03-15T04:10:57.892Z,54.33
2023-03-15T04:13:25.899Z,53.91
2023-03-15T04:15:57.762Z,54.24
2023-03-15T04:18:27.773Z,54.11
2023-03-15T04:20:56.066Z,53.70
2023-03-15T04:23:23.909Z,54.28
2023-03-15T04:25:52.726Z,54.04
2023-03-15T04:28:22.730Z,54.00
2023-03-15T04:30:50.580Z,53.66
2023-03-15T04:33:19.300Z,53.65
2023-03-15T04:35:47.148Z,52.87
2023-03-15T04:38:15.926Z,52.03
2023-03-15T04:40:43.833Z,51.38
2023-03-15T04:43:11.501Z,51.85
2023-03-15T04:45:39.258Z,51.42
2023-03-15T04:48:07.336Z,51.51
2023-03-15T04:50:35.378Z,50.68
2023-03-15T04:53:03.954Z,50.63
2023-03-15T04:55:34.156Z,51.10
2023-03-15T04:58:04.465Z,51.39
2023-03-15T05:00:32.176Z,50.83
2023-03-15T05:03:00.183Z,51.34
2023-03-15T05:05:29.355Z,51.74
2023-03-15T05:07:56.910Z,52.16
2023-03-15T05:10:25.403Z,52.42
2023-03-15T05:12:53.080Z,53.10
2023-03-15T05:15:20.831Z,52.66
2023-03-15T05:17:49.293Z,52.16
2023-03-15T05:20:17.012Z,53.08
2023-03-15T05:22:45.928Z,52.93
2023-03-15T05:25:15.348Z,52.87
2023-03-15T05:27:46.364Z,53.21
2023-03-15T05:30:16.162Z,53.69
2023-03-15T05:32:44.649Z,53.57
2023-03-15T05:35:13.303Z,53.33
2023-03-15T05:37:42.322Z,52.17
2023-03-15T05:40:11.440Z,51.76
2023-03-15T05:42:40.003Z,52.68
2023-03-15T05:45:08.617Z,51.70
2023-03-15T05:47:36.565Z,51.67
2023-03-15T05:50:05.054Z,51.87
2023-03-15T05:52:33.142Z,52.81
2023-03-15T05:55:02.422Z,52.32
2023-03-15T05:57:30.854Z,54.71
2023-03-15T05:59:59.108Z,54.78
2023-03-15T06:02:26.608Z,53.88
2023-03-15T06:04:55.216Z,53.36
2023-03-15T06:07:22.857Z,53.84
2023-03-15T06:09:52.055Z,53.65
2023-03-15T06:12:20.119Z,54.52
2023-03-15T06:14:47.954Z,54.28
2023-03-15T06:17:15.416Z,54.20
2023-03-15T06:19:43.549Z,53.80
2023-03-15T06:22:10.996Z,54.79
2023-03-15T06:24:38.518Z,53.91
2023-03-15T06:27:06.289Z,55.11
2023-03-15T06:29:35.483Z,54.74
2023-03-15T06:32:03.705Z,54.72
2023-03-15T06:34:31.620Z,54.22
2023-03-15T06:36:59.232Z,54.22
2023-03-15T06:39:26.628Z,53.45
2023-03-15T06:41:57.357Z,53.43
2023-03-15T06:44:25.802Z,54.06
2023-03-15T06:46:53.542Z,53.69
2023-03-15T06:49:21.280Z,53.75
2023-03-15T06:51:49.690Z,53.60
2023-03-15T06:54:17.169Z,53.54
2023-03-15T06:56:44.851Z,53.30
2023-03-15T06:59:12.237Z,53.09
2023-03-15T07:01:39.734Z,52.74
2023-03-15T07:04:08.456Z,52.27
2023-03-15T07:06:36.177Z,52.39
2023-03-15T07:09:05.288Z,53.91
2023-03-15T07:11:33.403Z,53.25
2023-03-15T07:14:01.022Z,52.75
2023-03-15T07:16:28.350Z,53.09
2023-03-15T07:18:56.580Z,52.54
2023-03-15T07:21:24.058Z,53.58
2023-03-15T07:23:51.862Z,53.97
2023-03-15T07:26:19.483Z,53.80
2023-03-15T07:28:46.985Z,53.95
2023-03-15T07:31:14.497Z,54.10
2023-03-15T07:33:42.277Z,53.91
2023-03-15T07:36:09.952Z,53.39
2023-03-15T07:38:37.404Z,52.63
2023-03-15T07:41:06.429Z,52.83
2023-03-15T07:43:34.470Z,52.59
2023-03-15T07:46:06.873Z,53.39
2023-03-15T07:48:34.569Z,53.13
2023-03-15T07:51:02.074Z,53.48
2023-03-15T07:53:29.958Z,53.86
2023-03-15T07:55:57.643Z,53.38
2023-03-15T07:58:25.049Z,54.33
2023-03-15T08:00:55.368Z,54.13
2023-03-15T08:03:24.609Z,53.77
2023-03-15T08:05:52.084Z,53.44
2023-03-15T08:08:19.847Z,53.13
2023-03-15T08:10:47.536Z,52.36
2023-03-15T08:13:14.966Z,53.19
2023-03-15T08:15:45.739Z,53.70
2023-03-15T08:18:14.130Z,52.54
2023-03-15T08:20:41.604Z,53.04
2023-03-15T08:23:09.265Z,51.90
2023-03-15T08:25:40.708Z,53.23
2023-03-15T08:28:08.518Z,51.49
2023-03-15T08:30:36.080Z,52.14
2023-03-15T08:33:03.975Z,52.77
2023-03-15T08:35:33.091Z,52.30
2023-03-15T08:38:02.750Z,51.04
2023-03-15T08:40:31.237Z,50.32
2023-03-15T08:42:59.638Z,50.64
2023-03-15T08:45:27.229Z,51.94
2023-03-15T08:47:59.096Z,50.94
2023-03-15T08:50:27.566Z,51.63
2023-03-15T08:52:55.653Z,51.84
2023-03-15T08:55:23.314Z,51.00
2023-03-15T08:57:50.740Z,51.17
2023-03-15T09:00:22.897Z,50.46
2023-03-15T09:02:55.099Z,50.78
2023-03-15T09:05:24.121Z,49.76
2023-03-15T09:07:53.168Z,49.84
2023-03-15T09:10:22.096Z,49.55
2023-03-15T09:12:52.202Z,48.63
2023-03-15T09:15:19.738Z,48.74
2023-03-15T09:17:49.557Z,48.95
2023-03-15T09:20:19.218Z,48.62
2023-03-15T09:22:57.146Z,49.40
2023-03-15T09:25:25.600Z,49.68
2023-03-15T09:27:53.430Z,48.85
2023-03-15T09:30:21.153Z,48.29
2023-03-15T09:32:49.177Z,48.02
2023-03-15T09:35:19.002Z,47.95
2023-03-15T09:37:47.555Z,47.90
2023-03-15T09:40:17.885Z,48.25
2023-03-15T09:42:57.047Z,47.33
2023-03-15T09:45:28.402Z,46.71
2023-03-15T09:48:33.608Z,46.79
2023-03-15T09:51:40.098Z,45.77
2023-03-15T09:54:13.508Z,45.96
2023-03-15T09:56:58.716Z,46.41
2023-03-15T09:59:30.718Z,46.31
2023-03-15T10:01:59.431Z,46.55
2023-03-15T10:04:34.872Z,46.39
2023-03-15T10:07:03.530Z,45.84
2023-03-15T10:09:35.494Z,45.43
2023-03-15T10:12:10.906Z,45.45
2023-03-15T10:14:59.521Z,44.87
2023-03-15T10:17:40.520Z,44.95
2023-03-15T10:20:14.040Z,44.24
2023-03-15T10:22:51.231Z,43.97
2023-03-15T10:25:26.271Z,43.95
2023-03-15T10:27:59.726Z,43.12
2023-03-15T10:30:30.105Z,43.33
2023-03-15T10:33:03.259Z,43.40
2023-03-15T10:35:32.151Z,42.71
2023-03-15T10:37:59.839Z,43.03
2023-03-15T10:40:51.755Z,43.35
2023-03-15T10:43:32.011Z,43.53
2023-03-15T10:46:01.225Z,43.54
2023-03-15T10:48:31.559Z,42.64
2023-03-15T10:51:19.589Z,42.78
2023-03-15T10:54:06.818Z,42.58
2023-03-15T10:57:02.096Z,42.34
2023-03-15T10:59:32.454Z,42.20
2023-03-15T11:02:12.077Z,43.26
2023-03-15T11:05:10.087Z,42.55
2023-03-15T11:07:37.466Z,40.96
2023-03-15T11:10:06.830Z,41.30
2023-03-15T11:12:35.091Z,41.56
2023-03-15T11:15:15.375Z,41.22
2023-03-15T11:17:45.929Z,41.13
2023-03-15T11:20:30.400Z,41.14
2023-03-15T11:23:00.052Z,40.14
2023-03-15T11:25:31.393Z,40.34
2023-03-15T11:28:00.096Z,41.20
2023-03-15T11:30:31.276Z,41.13
2023-03-15T11:33:05.293Z,41.34
2023-03-15T11:35:36.378Z,41.31
2023-03-15T11:38:15.583Z,41.11
2023-03-15T11:40:45.478Z,41.20
2023-03-15T11:43:22.214Z,41.26
2023-03-15T11:45:59.149Z,40.56
2023-03-15T11:48:42.609Z,40.44
2023-03-15T11:51:11.808Z,39.83
2023-03-15T11:53:50.166Z,38.89
2023-03-15T11:56:29.994Z,39.79
2023-03-15T11:59:12.896Z,40.15
2023-03-15T12:01:46.070Z,39.74
2023-03-15T12:04:32.173Z,39.95
2023-03-15T12:07:03.379Z,39.57
2023-03-15T12:09:36.218Z,39.26
2023-03-15T12:12:23.854Z,39.39
2023-03-15T12:15:36.022Z,39.08
2023-03-15T12:18:07.487Z,38.76
2023-03-15T12:20:42.904Z,39.31
2023-03-15T12:23:18.580Z,38.01
2023-03-15T12:25:55.283Z,38.34
2023-03-15T12:28:45.340Z,38.26
2023-03-15T12:31:14.150Z,38.33
2023-03-15T12:33:57.729Z,38.38
2023-03-15T12:36:37.246Z,37.80
2023-03-15T12:39:13.966Z,37.69
2023-03-15T12:41:44.259Z,37.90
2023-03-15T12:44:25.387Z,36.84
2023-03-15T12:46:54.932Z,36.29
2023-03-15T12:49:25.243Z,36.90
2023-03-15T12:51:59.477Z,36.47
2023-03-15T12:54:33.096Z,36.22
2023-03-15T12:57:03.254Z,35.05
2023-03-15T12:59:36.103Z,35.01
2023-03-15T13:02:43.274Z,35.02
2023-03-15T13:05:17.339Z,35.46
2023-03-15T13:07:52.143Z,34.01
2023-03-15T13:10:40.643Z,34.04
2023-03-15T13:13:17.368Z,34.51
2023-03-15T13:15:59.028Z,34.38
2023-03-15T13:18:27.276Z,33.84
2023-03-15T13:21:10.113Z,34.15
2023-03-15T13:23:37.895Z,34.05
2023-03-15T13:26:43.210Z,32.98
2023-03-15T13:29:15.075Z,33.44
2023-03-15T13:31:43.788Z,33.86
2023-03-15T13:34:16.849Z,33.24
2023-03-15T13:36:49.441Z,32.73
2023-03-15T13:39:23.400Z,32.59
2023-03-15T13:42:00.180Z,32.94
2023-03-15T13:44:29.150Z,33.37
2023-03-15T13:46:57.488Z,32.25
2023-03-15T13:49:25.854Z,33.51
2023-03-15T13:51:54.105Z,33.90
2023-03-15T13:54:26.967Z,33.27
2023-03-15T13:57:07.348Z,33.66
2023-03-15T13:59:52.701Z,31.95
2023-03-15T14:02:38.496Z,32.77
2023-03-15T14:05:13.357Z,33.31
2023-03-15T14:07:46.938Z,32.90
2023-03-15T14:10:32.196Z,32.87
2023-03-15T14:13:15.625Z,33.10
2023-03-15T14:15:44.364Z,32.43
2023-03-15T14:18:11.620Z,32.84
2023-03-15T14:20:48.067Z,32.75
2023-03-15T14:23:18.120Z,33.39
2023-03-15T14:25:53.017Z,34.22
2023-03-15T14:28:21.277Z,33.65
2023-03-15T14:30:57.311Z,33.53
2023-03-15T14:33:41.914Z,33.02
2023-03-15T14:36:25.972Z,33.76
2023-03-15T14:38:55.232Z,33.80
2023-03-15T14:41:31.289Z,33.58
2023-03-15T14:44:01.037Z,34.00
2023-03-15T14:46:29.984Z,34.01
2023-03-15T14:48:57.704Z,33.92
2023-03-15T14:51:26.909Z,33.76
2023-03-15T14:53:56.236Z,33.66
2023-03-15T14:56:24.870Z,33.76
2023-03-15T14:58:55.441Z,33.89
2023-03-15T15:01:25.126Z,33.97
2023-03-15T15:03:55.293Z,33.61
2023-03-15T15:06:22.719Z,33.57
2023-03-15T15:08:52.905Z,32.60
2023-03-15T15:11:20.603Z,32.74
2023-03-15T15:13:47.979Z,32.82
2023-03-15T15:16:15.446Z,32.26
2023-03-15T15:18:43.145Z,32.83
2023-03-15T15:21:21.937Z,32.72
2023-03-15T15:23:59.172Z,31.86
2023-03-15T15:26:28.801Z,31.68
2023-03-15T15:28:56.881Z,32.37
2023-03-15T15:31:25.969Z,31.87
2023-03-15T15:33:54.518Z,31.46
2023-03-15T15:36:36.649Z,32.47
2023-03-15T15:39:07.476Z,32.02
2023-03-15T15:41:35.324Z,32.21
2023-03-15T15:44:03.048Z,31.89
2023-03-15T15:46:30.617Z,32.13
2023-03-15T15:48:58.785Z,31.41
2023-03-15T15:51:28.903Z,31.31
2023-03-15T15:54:00.784Z,31.49
2023-03-15T15:56:44.159Z,31.48
2023-03-15T15:59:14.873Z,31.15
2023-03-15T16:01:58.859Z,31.80
2023-03-15T16:04:27.409Z,31.62
2023-03-15T16:06:58.573Z,31.93
2023-03-15T16:09:28.237Z,31.04
2023-03-15T16:11:55.918Z,32.01
2023-03-15T16:14:23.332Z,32.04
2023-03-15T16:16:50.771Z,31.03
2023-03-15T16:19:18.446Z,31.48
2023-03-15T16:21:47.914Z,31.72
2023-03-15T16:24:25.333Z,31.97
2023-03-15T16:26:58.996Z,31.81
2023-03-15T16:29:38.699Z,31.53
2023-03-15T16:32:16.893Z,32.29
2023-03-15T16:34:47.727Z,31.98
2023-03-15T16:37:22.684Z,31.94
2023-03-15T16:39:51.007Z,31.77
2023-03-15T16:42:19.176Z,32.37
2023-03-15T16:44:46.809Z,32.32
2023-03-15T16:47:14.177Z,31.73
2023-03-15T16:49:41.894Z,31.91
2023-03-15T16:52:11.749Z,31.57
2023-03-15T16:54:41.577Z,31.80
2023-03-15T16:57:21.885Z,31.80
2023-03-15T16:59:49.936Z,32.14
2023-03-15T17:02:20.271Z,31.26
2023-03-15T17:04:47.790Z,31.72
2023-03-15T17:07:15.796Z,31.31
2023-03-15T17:09:45.774Z,31.78
2023-03-15T17:12:33.376Z,31.35
2023-03-15T17:15:01.145Z,31.36
2023-03-15T17:17:31.398Z,31.50
2023-03-15T17:19:59.794Z,32.20
2023-03-15T17:22:27.552Z,31.57
2023-03-15T17:24:54.993Z,32.09
2023-03-15T17:27:27.514Z,31.68
2023-03-15T17:29:55.101Z,31.89
2023-03-15T17:32:22.665Z,31.54
2023-03-15T17:34:50.145Z,32.08
2023-03-15T17:37:18.652Z,31.72
2023-03-15T17:39:47.643Z,31.57
2023-03-15T17:42:15.389Z,31.63
2023-03-15T17:44:43.072Z,31.86
2023-03-15T17:47:13.727Z,31.80
2023-03-15T17:49:41.171Z,31.99
2023-03-15T17:52:13.058Z,31.88
2023-03-15T17:54:40.954Z,31.37
2023-03-15T17:57:11.788Z,31.68
2023-03-15T17:59:39.458Z,32.04
2023-03-15T18:02:13.754Z,31.99
2023-03-15T18:04:41.694Z,31.89
2023-03-15T18:07:09.090Z,31.61
2023-03-15T18:09:36.440Z,31.36
2023-03-15T18:12:04.206Z,30.93
2023-03-15T18:14:36.974Z,30.58
2023-03-15T18:17:05.339Z,30.51
2023-03-15T18:19:32.796Z,30.24
2023-03-15T18:22:00.216Z,30.61
2023-03-15T18:24:27.878Z,30.06
2023-03-15T18:26:55.256Z,30.07
2023-03-15T18:29:23.097Z,30.23
2023-03-15T18:31:50.868Z,30.43
2023-03-15T18:34:21.815Z,30.04
2023-03-15T18:36:49.442Z,30.17
2023-03-15T18:39:17.725Z,30.20
2023-03-15T18:41:45.122Z,29.75
2023-03-15T18:44:12.466Z,29.84
2023-03-15T18:46:43.744Z,29.90
2023-03-15T18:49:11.096Z,29.36
2023-03-15T18:51:38.480Z,29.56
2023-03-15T18:54:06.169Z,29.03
2023-03-15T18:56:35.769Z,29.41
2023-03-15T18:59:03.511Z,29.26
2023-03-15T19:01:32.339Z,28.53
2023-03-15T19:03:59.751Z,28.74
2023-03-15T19:06:27.478Z,28.73
2023-03-15T19:08:55.223Z,29.36
2023-03-15T19:11:24.399Z,28.84
2023-03-15T19:13:51.829Z,29.20
2023-03-15T19:16:23.278Z,28.58
2023-03-15T19:18:51.918Z,28.89
2023-03-15T19:21:20.121Z,28.72
2023-03-15T19:23:47.636Z,28.25
2023-03-15T19:26:15.073Z,28.08
2023-03-15T19:28:42.892Z,28.73
2023-03-15T19:31:11.281Z,28.39
2023-03-15T19:33:38.725Z,28.05
2023-03-15T19:36:06.800Z,27.80
2023-03-15T19:38:34.630Z,28.12
2023-03-15T19:41:06.234Z,28.27
2023-03-15T19:43:34.157Z,27.93
2023-03-15T19:46:01.667Z,27.49
2023-03-15T19:48:29.318Z,27.24
2023-03-15T19:50:57.048Z,27.30
2023-03-15T19:53:25.523Z,27.80
2023-03-15T19:55:53.014Z,28.27
2023-03-15T19:58:20.990Z,28.84
2023-03-15T20:00:54.155Z,30.27
2023-03-15T20:03:21.785Z,31.34
2023-03-15T20:05:49.204Z,31.43
2023-03-15T20:08:16.646Z,31.98
2023-03-15T20:10:44.314Z,32.66
2023-03-15T20:13:11.758Z,32.96
2023-03-15T20:15:39.314Z,33.40
2023-03-15T20:18:08.174Z,33.44
2023-03-15T20:20:35.807Z,33.45
2023-03-15T20:23:03.656Z,34.29
2023-03-15T20:25:31.627Z,34.53
2023-03-15T20:27:59.024Z,34.24
2023-03-15T20:30:26.739Z,34.18
2023-03-15T20:32:54.711Z,34.01
2023-03-15T20:35:22.229Z,33.38
2023-03-15T20:37:49.657Z,32.96
2023-03-15T20:40:17.437Z,32.69
2023-03-15T20:42:45.021Z,32.61
2023-03-15T20:45:13.686Z,32.57
2023-03-15T20:47:41.624Z,33.27
2023-03-15T20:50:10.543Z,32.70
2023-03-15T20:52:38.030Z,32.86
2023-03-15T20:55:07.849Z,33.01
2023-03-15T20:57:36.434Z,32.77
2023-03-15T21:00:12.324Z,33.34
2023-03-15T21:02:40.294Z,33.55
2023-03-15T21:05:09.517Z,33.91
2023-03-15T21:07:37.495Z,33.58
2023-03-15T21:10:05.788Z,33.24
2023-03-15T21:12:33.185Z,33.05
2023-03-15T21:15:01.759Z,33.23
2023-03-15T21:17:29.566Z,32.25
2023-03-15T21:19:57.055Z,32.21
2023-03-15T21:22:24.777Z,32.62
2023-03-15T21:24:55.863Z,32.29
2023-03-15T21:27:26.190Z,31.68
2023-03-15T21:29:54.612Z,31.63
2023-03-15T21:32:22.043Z,32.08
2023-03-15T21:34:49.426Z,32.28
2023-03-15T21:37:17.405Z,31.74
2023-03-15T21:39:45.056Z,32.36
2023-03-15T21:42:12.390Z,32.70
2023-03-15T21:44:40.438Z,33.71
2023-03-15T21:47:08.090Z,34.39
2023-03-15T21:49:35.424Z,34.75
2023-03-15T21:52:03.106Z,34.70
2023-03-15T21:54:30.517Z,35.03
2023-03-15T21:56:58.191Z,34.80
2023-03-15T21:59:29.270Z,34.67
2023-03-15T22:01:57.284Z,35.10
2023-03-15T22:04:25.068Z,35.05
2023-03-15T22:06:52.969Z,35.66
2023-03-15T22:09:21.033Z,36.24
2023-03-15T22:11:49.125Z,36.05
2023-03-15T22:14:16.631Z,36.34
2023-03-15T22:16:44.351Z,37.23
2023-03-15T22:19:12.079Z,37.24
2023-03-15T22:21:39.461Z,37.69
2023-03-15T22:24:08.381Z,37.50
2023-03-15T22:26:36.147Z,38.15
2023-03-15T22:29:03.790Z,38.20
2023-03-15T22:31:31.809Z,38.53
2023-03-15T22:33:59.486Z,39.36
2023-03-15T22:36:26.798Z,39.34
2023-03-15T22:38:54.144Z,39.47
2023-03-15T22:41:22.047Z,39.72
2023-03-15T22:43:49.485Z,40.35
2023-03-15T22:46:17.347Z,41.05
2023-03-15T22:48:45.218Z,40.59
2023-03-15T22:51:15.380Z,40.93
2023-03-15T22:53:43.001Z,41.70
2023-03-15T22:56:10.747Z,41.45
2023-03-15T22:58:38.209Z,42.23
2023-03-15T23:01:05.661Z,42.49
2023-03-15T23:03:33.421Z,41.90
2023-03-15T23:06:00.740Z,42.47
2023-03-15T23:08:28.146Z,42.04
2023-03-15T23:10:58.812Z,41.37
2023-03-15T23:13:26.169Z,41.85
2023-03-15T23:15:54.237Z,41.80
2023-03-15T23:18:22.094Z,42.53
2023-03-15T23:20:49.543Z,42.50
2023-03-15T23:23:17.148Z,42.25
2023-03-15T23:25:45.966Z,41.98
2023-03-15T23:28:17.056Z,42.27
2023-03-15T23:30:45.578Z,42.30
2023-03-15T23:33:13.423Z,41.71
2023-03-15T23:35:41.952Z,41.09
2023-03-15T23:38:09.712Z,41.36
2023-03-15T23:40:37.388Z,42.05
2023-03-15T23:43:06.042Z,42.13
2023-03-15T23:45:34.088Z,42.49
2023-03-15T23:48:02.639Z,42.36
2023-03-15T23:50:30.309Z,42.88
2023-03-15T23:52:58.172Z,42.35
2023-03-15T23:55:25.565Z,43.72
2023-03-15T23:57:52.960Z,43.18
